createdAt,value
2023-01-02T00:00:22.092Z,100479.97
2023-01-02T00:02:49.603Z,100490.53
2023-01-02T00:05:17.160Z,100482.94
2023-01-02T00:07:44.523Z,100474.84
2023-01-02T00:10:11.935Z,100487.34
2023-01-02T00:12:40.650Z,100473.59
2023-01-02T00:15:08.693Z,100478.50
2023-01-02T00:17:36.070Z,100479.09
2023-01-02T00:20:03.465Z,100466.97
2023-01-02T00:22:30.813Z,100472.63
2023-01-02T00:24:58.189Z,100476.19
2023-01-02T00:27:25.564Z,100466.00
2023-01-02T00:29:54.297Z,100469.78
2023-01-02T00:32:21.723Z,100472.63
2023-01-02T00:34:49.141Z,100455.81
2023-01-02T00:37:16.515Z,100464.00
2023-01-02T00:39:43.930Z,100456.28
2023-01-02T00:42:11.405Z,100451.25
2023-01-02T00:44:38.794Z,100450.75
2023-01-02T00:47:07.614Z,100444.63
2023-01-02T00:49:35.031Z,100438.84
2023-01-02T00:52:02.401Z,100440.81
2023-01-02T00:54:29.833Z,100438.84
2023-01-02T00:56:57.238Z,100429.91
2023-01-02T00:59:24.739Z,100440.78
2023-01-02T01:01:52.199Z,100433.03
2023-01-02T01:04:21.057Z,100443.09
2023-01-02T01:06:48.422Z,100441.00
2023-01-02T01:09:15.879Z,100455.22
2023-01-02T01:11:43.285Z,100453.38
2023-01-02T01:14:10.644Z,100445.75
2023-01-02T01:16:38.034Z,100453.50
2023-01-02T01:19:05.492Z,100437.25
2023-01-02T01:21:34.296Z,100434.66
2023-01-02T01:24:01.657Z,100450.41
2023-01-02T01:26:29.250Z,100447.13
2023-01-02T01:28:57.255Z,100445.66
2023-01-02T01:31:25.024Z,100442.69
2023-01-02T01:33:52.438Z,100448.81
2023-01-02T01:36:21.713Z,100437.19
2023-01-02T01:38:50.780Z,100424.91
2023-01-02T01:41:20.891Z,100420.59
2023-01-02T01:43:50.349Z,100420.97
2023-01-02T01:46:24.339Z,100420.53
2023-01-02T01:48:58.768Z,100414.59
2023-01-02T01:51:28.093Z,100411.09
2023-01-02T01:54:07.579Z,100405.91
2023-01-02T01:56:37.106Z,100391.34
2023-01-02T01:59:04.910Z,100404.47
2023-01-02T02:01:33.052Z,100400.06
2023-01-02T02:04:00.937Z,100404.47
2023-01-02T02:06:29.262Z,100395.38
2023-01-02T02:09:02.187Z,100404.28
2023-01-02T02:11:29.578Z,100402.59
2023-01-02T02:14:00.020Z,100401.25
2023-01-02T02:16:37.536Z,100402.31
2023-01-02T02:19:25.204Z,100402.31
2023-01-02T02:22:20.132Z,100406.47
2023-01-02T02:25:07.350Z,100410.97
2023-01-02T02:28:00.052Z,100397.59
2023-01-02T02:30:35.514Z,100393.31
2023-01-02T02:33:21.882Z,100386.91
2023-01-02T02:36:00.804Z,100384.53
2023-01-02T02:38:45.062Z,100385.88
2023-01-02T02:41:23.017Z,100378.66
2023-01-02T02:43:59.100Z,100375.19
2023-01-02T02:46:36.491Z,100379.34
2023-01-02T02:49:09.249Z,100395.00
2023-01-02T02:51:42.663Z,100400.06
2023-01-02T02:54:15.497Z,100392.25
2023-01-02T02:56:44.654Z,100379.03
2023-01-02T02:59:13.266Z,100371.16
2023-01-02T03:01:42.348Z,100370.78
2023-01-02T03:04:20.099Z,100366.66
2023-01-02T03:06:59.665Z,100360.38
2023-01-02T03:09:39.439Z,100370.41
2023-01-02T03:12:19.890Z,100370.94
2023-01-02T03:14:57.585Z,100364.53
2023-01-02T03:17:34.273Z,100358.28
2023-01-02T03:20:07.978Z,100358.56
2023-01-02T03:22:40.028Z,100372.06
2023-01-02T03:25:10.253Z,100368.88
2023-01-02T03:27:42.099Z,100377.53
2023-01-02T03:30:16.057Z,100368.69
2023-01-02T03:32:49.700Z,100374.84
2023-01-02T03:35:22.826Z,100365.53
2023-01-02T03:37:55.343Z,100359.63
2023-01-02T03:40:27.352Z,100357.91
2023-01-02T03:43:00.885Z,100360.19
2023-01-02T03:45:31.968Z,100337.06
2023-01-02T03:48:08.576Z,100326.88
2023-01-02T03:50:42.700Z,100344.44
2023-01-02T03:53:10.039Z,100327.88
2023-01-02T03:55:41.472Z,100331.16
2023-01-02T03:58:16.623Z,100321.19
2023-01-02T04:00:49.909Z,100304.06
2023-01-02T04:03:23.516Z,100312.75
2023-01-02T04:05:58.345Z,100315.97
2023-01-02T04:08:29.017Z,100303.94
2023-01-02T04:11:00.611Z,100311.03
2023-01-02T04:13:33.735Z,100315.19
2023-01-02T04:16:02.514Z,100318.88
2023-01-02T04:18:40.233Z,100313.25
2023-01-02T04:21:16.046Z,100309.84
2023-01-02T04:23:49.319Z,100300.78
2023-01-02T04:26:22.326Z,100311.22
2023-01-02T04:28:50.259Z,100316.13
2023-01-02T04:31:20.478Z,100319.31
2023-01-02T04:33:54.278Z,100318.44
2023-01-02T04:36:22.411Z,100323.59
2023-01-02T04:38:50.232Z,100322.84
2023-01-02T04:41:26.763Z,100327.88
2023-01-02T04:43:54.785Z,100328.50
2023-01-02T04:46:22.848Z,100333.03
2023-01-02T04:48:51.605Z,100327.28
2023-01-02T04:51:19.281Z,100329.03
2023-01-02T04:53:48.361Z,100336.25
2023-01-02T04:56:15.743Z,100330.88
2023-01-02T04:58:43.454Z,100339.84
2023-01-02T05:01:11.683Z,100328.78
2023-01-02T05:03:40.569Z,100332.25
2023-01-02T05:06:09.996Z,100336.91
2023-01-02T05:08:38.019Z,100329.31
2023-01-02T05:11:09.200Z,100321.28
2023-01-02T05:13:36.588Z,100324.84
2023-01-02T05:16:04.245Z,100326.69
2023-01-02T05:18:32.417Z,100331.81
2023-01-02T05:21:04.153Z,100330.09
2023-01-02T05:23:50.193Z,100329.75
2023-01-02T05:26:18.914Z,100337.94
2023-01-02T05:28:46.411Z,100332.31
2023-01-02T05:31:13.996Z,100336.38
2023-01-02T05:33:41.438Z,100343.81
2023-01-02T05:36:09.963Z,100344.66
2023-01-02T05:38:39.758Z,100340.38
2023-01-02T05:41:08.597Z,100344.66
2023-01-02T05:43:37.362Z,100348.72
2023-01-02T05:46:09.103Z,100344.44
2023-01-02T05:48:36.538Z,100348.72
2023-01-02T05:51:04.197Z,100344.44
2023-01-02T05:53:32.098Z,100356.50
2023-01-02T05:56:06.853Z,100357.28
2023-01-02T05:58:34.665Z,100355.59
2023-01-02T06:01:09.357Z,100350.03
2023-01-02T06:03:37.180Z,100350.69
2023-01-02T06:06:06.203Z,100349.56
2023-01-02T06:08:33.776Z,100349.41
2023-01-02T06:11:01.364Z,100358.72
2023-01-02T06:13:30.781Z,100358.47
2023-01-02T06:15:58.639Z,100368.16
2023-01-02T06:18:26.766Z,100378.56
2023-01-02T06:20:58.747Z,100372.44
2023-01-02T06:23:26.143Z,100385.63
2023-01-02T06:25:53.584Z,100384.03
2023-01-02T06:28:20.992Z,100379.75
2023-01-02T06:30:49.680Z,100385.00
2023-01-02T06:33:17.075Z,100371.28
2023-01-02T06:35:44.438Z,100375.03
2023-01-02T06:38:11.797Z,100390.69
2023-01-02T06:40:39.131Z,100384.56
2023-01-02T06:43:06.485Z,100380.38
2023-01-02T06:45:34.545Z,100378.44
2023-01-02T06:48:03.166Z,100381.25
2023-01-02T06:50:34.931Z,100384.53
2023-01-02T06:53:02.554Z,100374.88
2023-01-02T06:55:29.964Z,100372.53
2023-01-02T06:57:57.369Z,100366.63
2023-01-02T07:00:24.768Z,100379.81
2023-01-02T07:02:52.213Z,100375.38
2023-01-02T07:05:24.538Z,100384.25
2023-01-02T07:07:52.249Z,100380.59
2023-01-02T07:10:19.917Z,100377.59
2023-01-02T07:12:47.256Z,100384.06
2023-01-02T07:15:14.628Z,100385.06
2023-01-02T07:17:41.994Z,100384.88
2023-01-02T07:20:10.442Z,100385.00
2023-01-02T07:22:39.385Z,100388.31
2023-01-02T07:25:07.878Z,100397.19
2023-01-02T07:27:35.614Z,100403.94
2023-01-02T07:30:02.992Z,100408.03
2023-01-02T07:32:30.392Z,100419.00
2023-01-02T07:34:57.794Z,100419.00
2023-01-02T07:37:25.192Z,100424.38
2023-01-02T07:39:54.181Z,100419.22
2023-01-02T07:42:21.582Z,100423.00
2023-01-02T07:44:48.972Z,100430.28
2023-01-02T07:47:16.356Z,100430.09
2023-01-02T07:49:43.717Z,100431.22
2023-01-02T07:52:11.593Z,100440.72
2023-01-02T07:54:39.093Z,100437.06
2023-01-02T07:57:08.114Z,100435.00
2023-01-02T07:59:35.493Z,100429.09
2023-01-02T08:02:03.101Z,100436.28
2023-01-02T08:04:30.549Z,100449.50
2023-01-02T08:06:58.001Z,100449.72
2023-01-02T08:09:25.360Z,100442.31
2023-01-02T08:11:52.752Z,100440.50
2023-01-02T08:14:23.630Z,100444.59
2023-01-02T08:16:51.858Z,100446.84
2023-01-02T08:19:19.142Z,100447.81
2023-01-02T08:21:46.501Z,100447.59
2023-01-02T08:24:13.875Z,100446.22
2023-01-02T08:26:41.238Z,100444.81
2023-01-02T08:29:09.121Z,100442.97
2023-01-02T08:31:43.468Z,100448.75
2023-01-02T08:34:14.416Z,100447.16
2023-01-02T08:36:41.925Z,100447.34
2023-01-02T08:39:09.362Z,100448.09
2023-01-02T08:41:38.574Z,100449.69
2023-01-02T08:44:06.677Z,100455.47
2023-01-02T08:46:40.383Z,100456.91
2023-01-02T08:49:11.213Z,100466.88
2023-01-02T08:51:38.660Z,100467.22
2023-01-02T08:54:06.195Z,100471.28
2023-01-02T08:56:35.316Z,100459.34
2023-01-02T08:59:05.027Z,100463.88
2023-01-02T09:01:33.779Z,100456.16
2023-01-02T09:04:06.201Z,100461.22
2023-01-02T09:06:40.217Z,100461.84
2023-01-02T09:09:11.993Z,100463.78
2023-01-02T09:11:43.474Z,100480.69
2023-01-02T09:14:10.877Z,100476.06
2023-01-02T09:16:38.321Z,100473.78
2023-01-02T09:19:05.885Z,100472.34
2023-01-02T09:21:33.310Z,100464.28
2023-01-02T09:24:02.209Z,100467.94
2023-01-02T09:26:29.576Z,100458.50
2023-01-02T09:28:57.024Z,100448.16
2023-01-02T09:31:24.482Z,100458.81
2023-01-02T09:33:54.336Z,100467.91
2023-01-02T09:36:22.086Z,100468.13
2023-01-02T09:38:53.548Z,100473.69
2023-01-02T09:41:41.873Z,100476.38
2023-01-02T09:44:15.930Z,100483.94
2023-01-02T09:46:50.314Z,100480.66
2023-01-02T09:49:21.277Z,100482.09
2023-01-02T09:51:49.208Z,100475.19
2023-01-02T09:54:24.029Z,100469.88
2023-01-02T09:57:01.454Z,100476.78
2023-01-02T09:59:34.106Z,100480.63
2023-01-02T10:02:12.073Z,100471.47
2023-01-02T10:04:50.324Z,100472.75
2023-01-02T10:07:24.133Z,100475.38
2023-01-02T10:09:56.868Z,100461.63
2023-01-02T10:12:33.096Z,100462.47
2023-01-02T10:15:03.040Z,100462.13
2023-01-02T10:17:37.610Z,100463.09
2023-01-02T10:20:22.097Z,100464.53
2023-01-02T10:22:54.430Z,100466.38
2023-01-02T10:25:27.844Z,100461.56
2023-01-02T10:28:03.580Z,100455.97
2023-01-02T10:30:37.019Z,100452.19
2023-01-02T10:33:12.097Z,100442.88
2023-01-02T10:35:43.949Z,100442.50
2023-01-02T10:38:13.034Z,100446.16
2023-01-02T10:40:42.949Z,100449.09
2023-01-02T10:43:12.455Z,100439.56
2023-01-02T10:45:40.065Z,100451.94
2023-01-02T10:48:08.119Z,100446.75
2023-01-02T10:50:39.145Z,100442.81
2023-01-02T10:53:08.805Z,100430.53
2023-01-02T10:55:39.786Z,100426.06
2023-01-02T10:58:13.827Z,100428.25
2023-01-02T11:00:42.725Z,100430.38
2023-01-02T11:03:16.650Z,100432.06
2023-01-02T11:05:47.615Z,100426.06
2023-01-02T11:08:17.713Z,100427.56
2023-01-02T11:10:45.259Z,100423.78
2023-01-02T11:13:14.715Z,100419.34
2023-01-02T11:15:51.446Z,100426.31
2023-01-02T11:18:23.453Z,100424.75
2023-01-02T11:20:53.509Z,100413.13
2023-01-02T11:23:25.198Z,100420.44
2023-01-02T11:25:54.813Z,100418.75
2023-01-02T11:28:25.201Z,100423.88
2023-01-02T11:30:56.107Z,100433.06
2023-01-02T11:33:29.935Z,100428.31
2023-01-02T11:35:59.252Z,100425.63
2023-01-02T11:38:29.432Z,100433.56
2023-01-02T11:41:01.070Z,100425.97
2023-01-02T11:43:49.421Z,100410.34
2023-01-02T11:46:33.316Z,100398.53
2023-01-02T11:49:05.026Z,100398.44
2023-01-02T11:51:35.040Z,100413.31
2023-01-02T11:54:05.848Z,100412.13
2023-01-02T11:56:36.191Z,100406.06
2023-01-02T11:59:07.764Z,100416.41
2023-01-02T12:01:47.509Z,100423.03
2023-01-02T12:04:15.723Z,100423.94
2023-01-02T12:06:57.902Z,100415.63
2023-01-02T12:09:33.559Z,100409.56
2023-01-02T12:12:24.473Z,100406.72
2023-01-02T12:15:11.630Z,100400.16
2023-01-02T12:17:47.762Z,100401.28
2023-01-02T12:20:36.466Z,100388.31
2023-01-02T12:23:17.945Z,100391.50
2023-01-02T12:25:57.413Z,100389.16
2023-01-02T12:28:46.613Z,100385.63
2023-01-02T12:31:32.096Z,100394.88
2023-01-02T12:34:12.528Z,100407.13
2023-01-02T12:36:54.487Z,100397.19
2023-01-02T12:39:50.216Z,100396.22
2023-01-02T12:42:31.104Z,100399.16
2023-01-02T12:44:59.767Z,100407.72
2023-01-02T12:47:54.273Z,100401.59
2023-01-02T12:50:48.768Z,100401.22
2023-01-02T12:53:29.658Z,100404.06
2023-01-02T12:56:08.625Z,100392.53
2023-01-02T12:58:54.324Z,100394.25
2023-01-02T13:01:30.278Z,100403.34
2023-01-02T13:04:04.015Z,100399.66
2023-01-02T13:06:46.637Z,100403.06
2023-01-02T13:09:22.675Z,100400.38
2023-01-02T13:11:57.062Z,100392.06
2023-01-02T13:14:27.716Z,100388.25
2023-01-02T13:17:02.935Z,100391.91
2023-01-02T13:19:38.631Z,100386.41
2023-01-02T13:22:19.554Z,100392.56
2023-01-02T13:24:47.865Z,100396.34
2023-01-02T13:27:15.283Z,100393.28
2023-01-02T13:29:45.536Z,100398.16
2023-01-02T13:32:14.798Z,100407.59
2023-01-02T13:34:52.564Z,100408.94
2023-01-02T13:37:25.820Z,100415.06
2023-01-02T13:39:55.598Z,100427.06
2023-01-02T13:42:44.524Z,100424.59
2023-01-02T13:45:16.185Z,100423.06
2023-01-02T13:47:49.891Z,100426.28
2023-01-02T13:50:23.599Z,100420.00
2023-01-02T13:53:05.388Z,100430.06
2023-01-02T13:55:34.711Z,100433.31
2023-01-02T13:58:25.649Z,100427.94
2023-01-02T14:00:56.184Z,100434.47
2023-01-02T14:03:37.966Z,100442.19
2023-01-02T14:06:26.370Z,100451.72
2023-01-02T14:09:14.553Z,100439.94
2023-01-02T14:11:55.398Z,100445.97
2023-01-02T14:14:33.623Z,100448.78
2023-01-02T14:17:15.944Z,100441.06
2023-01-02T14:19:44.164Z,100440.81
2023-01-02T14:22:14.127Z,100456.34
2023-01-02T14:24:45.956Z,100458.31
2023-01-02T14:27:23.910Z,100452.63
2023-01-02T14:29:54.821Z,100463.88
2023-01-02T14:32:25.650Z,100469.13
2023-01-02T14:34:56.704Z,100462.78
2023-01-02T14:37:30.781Z,100473.41
2023-01-02T14:40:10.953Z,100477.28
2023-01-02T14:42:57.613Z,100471.91
2023-01-02T14:45:28.149Z,100481.28
2023-01-02T14:48:01.301Z,100489.84
2023-01-02T14:50:33.682Z,100476.16
2023-01-02T14:53:06.313Z,100469.53
2023-01-02T14:55:42.194Z,100474.31
2023-01-02T14:58:18.918Z,100478.00
2023-01-02T15:00:48.866Z,100469.53
2023-01-02T15:03:27.739Z,100472.25
2023-01-02T15:06:00.410Z,100469.72
2023-01-02T15:08:38.836Z,100474.91
2023-01-02T15:11:45.176Z,100469.13
2023-01-02T15:14:19.026Z,100474.19
2023-01-02T15:16:54.679Z,100481.06
2023-01-02T15:19:26.566Z,100486.34
2023-01-02T15:21:54.693Z,100472.69
2023-01-02T15:24:24.692Z,100484.09
2023-01-02T15:26:53.711Z,100476.47
2023-01-02T15:29:26.746Z,100491.47
2023-01-02T15:31:56.365Z,100498.88
2023-01-02T15:34:30.503Z,100503.19
2023-01-02T15:37:01.910Z,100508.34
2023-01-02T15:39:34.455Z,100505.13
2023-01-02T15:42:10.015Z,100513.53
2023-01-02T15:44:57.792Z,100513.84
2023-01-02T15:47:28.164Z,100511.56
2023-01-02T15:49:57.432Z,100527.03
2023-01-02T15:52:27.438Z,100527.91
2023-01-02T15:54:55.442Z,100522.31
2023-01-02T15:57:26.736Z,100528.78
2023-01-02T15:59:54.633Z,100529.34
2023-01-02T16:02:40.845Z,100533.13
2023-01-02T16:05:11.990Z,100525.38
2023-01-02T16:07:40.311Z,100513.34
2023-01-02T16:10:09.764Z,100528.63
2023-01-02T16:12:38.475Z,100525.81
2023-01-02T16:15:08.318Z,100536.47
2023-01-02T16:17:38.893Z,100535.81
2023-01-02T16:20:16.893Z,100542.69
2023-01-02T16:22:47.681Z,100548.16
2023-01-02T16:25:18.746Z,100558.94
2023-01-02T16:27:54.873Z,100561.31
2023-01-02T16:30:32.795Z,100563.00
2023-01-02T16:33:02.322Z,100571.50
2023-01-02T16:35:31.268Z,100573.34
2023-01-02T16:37:59.722Z,100564.28
2023-01-02T16:41:00.945Z,100574.53
2023-01-02T16:43:30.695Z,100563.44
2023-01-02T16:45:59.750Z,100569.38
2023-01-02T16:48:29.956Z,100557.88
2023-01-02T16:50:59.449Z,100571.81
2023-01-02T16:53:29.784Z,100592.50
2023-01-02T16:55:57.581Z,100595.03
2023-01-02T16:58:26.206Z,100574.63
2023-01-02T17:00:56.370Z,100588.81
2023-01-02T17:03:26.269Z,100594.84
2023-01-02T17:06:02.251Z,100584.19
2023-01-02T17:08:30.850Z,100584.28
2023-01-02T17:10:58.757Z,100584.28
2023-01-02T17:13:26.634Z,100591.03
2023-01-02T17:15:55.625Z,100595.31
2023-01-02T17:18:23.669Z,100601.63
2023-01-02T17:20:50.947Z,100595.13
2023-01-02T17:23:20.009Z,100611.06
2023-01-02T17:25:48.213Z,100602.16
2023-01-02T17:28:16.339Z,100595.13
2023-01-02T17:30:44.878Z,100597.59
2023-01-02T17:33:13.813Z,100596.91
2023-01-02T17:35:41.318Z,100593.97
2023-01-02T17:38:09.093Z,100594.34
2023-01-02T17:40:38.643Z,100606.09
2023-01-02T17:43:06.488Z,100608.50
2023-01-02T17:45:33.925Z,100617.97
2023-01-02T17:48:10.072Z,100616.28
2023-01-02T17:50:40.135Z,100623.56
2023-01-02T17:53:08.208Z,100631.78
2023-01-02T17:55:35.736Z,100620.91
2023-01-02T17:58:03.152Z,100628.91
2023-01-02T18:00:30.555Z,100622.44
2023-01-02T18:02:58.033Z,100622.63
2023-01-02T18:05:25.407Z,100616.56
2023-01-02T18:07:54.104Z,100619.44
2023-01-02T18:10:23.704Z,100616.47
2023-01-02T18:12:53.451Z,100603.69
2023-01-02T18:15:22.982Z,100610.56
2023-01-02T18:17:50.434Z,100611.72
2023-01-02T18:20:20.551Z,100609.84
2023-01-02T18:22:50.592Z,100614.88
2023-01-02T18:25:24.087Z,100610.88
2023-01-02T18:27:51.799Z,100613.09
2023-01-02T18:30:21.255Z,100614.75
2023-01-02T18:32:50.090Z,100611.25
2023-01-02T18:38:18.981Z,100619.59
2023-01-02T18:40:47.674Z,100624.56
2023-01-02T18:43:21.627Z,100610.66
2023-01-02T18:45:51.700Z,100612.75
2023-01-02T18:48:20.941Z,100613.25
2023-01-02T18:51:01.477Z,100618.25
2023-01-02T18:53:35.625Z,100606.50
2023-01-02T18:56:13.309Z,100612.25
2023-01-02T18:58:43.457Z,100607.94
2023-01-02T19:01:26.112Z,100607.78
2023-01-02T19:03:58.167Z,100616.19
2023-01-02T19:06:27.288Z,100616.50
2023-01-02T19:09:03.364Z,100618.97
2023-01-02T19:11:52.510Z,100616.44
2023-01-02T19:14:23.373Z,100617.03
2023-01-02T19:17:10.236Z,100611.50
2023-01-02T19:19:40.727Z,100617.66
2023-01-02T19:22:13.837Z,100618.53
2023-01-02T19:24:41.247Z,100617.31
2023-01-02T19:27:26.064Z,100622.25
2023-01-02T19:29:54.688Z,100617.56
2023-01-02T19:32:30.595Z,100621.34
2023-01-02T19:35:00.696Z,100611.44
2023-01-02T19:37:38.791Z,100629.06
2023-01-02T19:40:16.691Z,100629.31
2023-01-02T19:42:49.068Z,100628.00
2023-01-02T19:45:18.833Z,100631.28
2023-01-02T19:47:47.325Z,100631.16
2023-01-02T19:50:19.224Z,100625.88
2023-01-02T19:52:46.680Z,100633.25
2023-01-02T19:55:14.882Z,100619.16
2023-01-02T19:57:42.677Z,100629.31
2023-01-02T20:00:14.646Z,100620.97
2023-01-02T20:02:45.238Z,100632.75
2023-01-02T20:05:20.766Z,100624.41
2023-01-02T20:07:49.925Z,100620.13
2023-01-02T20:10:17.881Z,100633.00
2023-01-02T20:12:44.906Z,100634.97
2023-01-02T20:15:17.161Z,100648.69
2023-01-02T20:17:45.998Z,100658.75
2023-01-02T20:20:15.595Z,100668.59
2023-01-02T20:22:43.729Z,100678.59
2023-01-02T20:25:11.791Z,100702.31
2023-01-02T20:27:39.153Z,100709.63
2023-01-02T20:30:08.680Z,100728.19
2023-01-02T20:32:39.457Z,100736.88
2023-01-02T20:35:07.422Z,100751.94
2023-01-02T20:37:34.900Z,100774.91
2023-01-02T20:40:02.346Z,100789.56
2023-01-02T20:42:29.786Z,100793.38
2023-01-02T20:44:57.152Z,100805.56
2023-01-02T20:47:24.550Z,100831.91
2023-01-02T20:49:53.372Z,100821.97
2023-01-02T20:52:21.266Z,100830.91
2023-01-02T20:57:17.039Z,100847.25
2023-01-02T20:59:44.525Z,100857.53
2023-01-02T21:02:12.099Z,100864.53
2023-01-02T21:04:39.591Z,100880.41
2023-01-02T21:07:08.356Z,100878.50
2023-01-02T21:09:35.780Z,100888.78
2023-01-02T21:12:03.190Z,100877.56
2023-01-02T21:14:37.078Z,100886.34
2023-01-02T21:17:04.970Z,100876.31
2023-01-02T21:19:32.335Z,100900.81
2023-01-02T21:21:59.752Z,100902.25
2023-01-02T21:24:28.479Z,100920.66
2023-01-02T21:26:55.833Z,100916.19
2023-01-02T21:29:23.243Z,100911.09
2023-01-02T21:31:50.648Z,100912.44
2023-01-02T21:34:18.118Z,100914.56
2023-01-02T21:36:45.505Z,100929.78
2023-01-02T21:39:12.908Z,100938.31
2023-01-02T21:41:59.210Z,100935.19
2023-01-02T21:44:26.615Z,100941.25
2023-01-02T21:46:54.041Z,100948.91
2023-01-02T21:49:21.912Z,100951.78
2023-01-02T21:51:49.283Z,100957.31
2023-01-02T21:54:16.661Z,100966.97
2023-01-02T21:56:45.358Z,100967.00
2023-01-02T21:59:12.732Z,100965.06
2023-01-02T22:01:43.665Z,100963.91
2023-01-02T22:04:11.173Z,100978.88
2023-01-02T22:07:04.268Z,100972.00
2023-01-02T22:09:28.012Z,100979.56
2023-01-02T22:11:56.725Z,100980.22
2023-01-02T22:14:26.763Z,100977.72
2023-01-02T22:16:54.912Z,100982.53
2023-01-02T22:19:22.867Z,100983.41
2023-01-02T22:21:50.740Z,100991.84
2023-01-02T22:24:19.029Z,100997.38
2023-01-02T22:26:48.281Z,100997.97
2023-01-02T22:29:17.823Z,101001.41
2023-01-02T22:31:45.571Z,101007.28
2023-01-02T22:34:13.149Z,101008.09
2023-01-02T22:36:40.567Z,101013.84
2023-01-02T22:39:27.524Z,101019.78
2023-01-02T22:42:57.756Z,101028.88
2023-01-02T22:45:15.247Z,101022.75
2023-01-02T22:47:42.782Z,101022.75
2023-01-02T22:50:18.413Z,101029.44
2023-01-02T22:52:46.039Z,101026.34
2023-01-02T22:55:17.125Z,101026.84
2023-01-02T22:57:51.099Z,101029.81
2023-01-02T23:00:23.065Z,101026.81
2023-01-02T23:02:51.086Z,101040.72
2023-01-02T23:05:19.174Z,101036.53
2023-01-02T23:07:49.456Z,101037.31
2023-01-02T23:10:17.403Z,101034.41
2023-01-02T23:12:44.975Z,101040.75
2023-01-02T23:15:14.893Z,101041.38
2023-01-02T23:18:06.375Z,101043.19
2023-01-02T23:20:34.244Z,101051.88
2023-01-02T23:23:01.722Z,101046.31
2023-01-02T23:25:29.102Z,101055.28
2023-01-02T23:27:56.584Z,101053.38
2023-01-02T23:30:23.977Z,101052.41
2023-01-02T23:32:52.664Z,101056.06
2023-01-02T23:35:20.071Z,101047.19
2023-01-02T23:37:47.440Z,101045.13
2023-01-02T23:40:14.803Z,101053.13
2023-01-02T23:42:42.198Z,101049.34
2023-01-02T23:45:10.373Z,101059.03
2023-01-02T23:47:37.760Z,101075.06
2023-01-02T23:50:07.301Z,101071.72
2023-01-02T23:52:34.702Z,101079.19
2023-01-02T23:55:02.108Z,101095.25
2023-01-02T23:57:29.495Z,101090.13
2023-01-02T23:59:56.875Z,101109.25
